Latest Weather Observations for Applethorpe

IDQ60801

Issued at 6:05 pm EST Sunday 21 September 2014 (issued every 30 minutes, with the page automatically refreshed every 10 minutes)

About weather observations | Map of weather stations | Latest weather observations for QLD | Other Formats
Station Details ID: 041175 Name: APPLETHORPE Lat: -28.62 Lon: 151.95 Height: 871.6 m
Data from the previous 72 hours. | See also: Recent months at Applethorpe
Date/Time
EST
Temp
°C
App
Temp
°C
Dew
Point
Rel
Hum
%
Delta-T
°C
Wind Press
QNH
hPa
Press
MSL
hPa
Rain
since 9 am
mm
Dir
 
Spd
km/h
Gust
km/h
Spd
kts
Gust
kts
21/06:00pm 11.7 8.8 6.4 70 2.6 ESE 11 20 6 11 1026.9 1025.6 0.0
21/05:30pm 12.2 9.3 6.3 67 2.9 ESE 11 28 6 15 1026.4 1025.0 0.0
21/05:00pm 13.1 9.7 6.0 62 3.5 E 13 26 7 14 1026.2 1024.8 0.0
21/04:30pm 13.9 10.4 5.3 56 4.2 ESE 13 22 7 12 1025.9 1024.5 0.0
21/04:00pm 14.4 11.2 5.0 53 4.6 E 11 20 6 11 1025.9 1024.5 0.0
21/03:30pm 14.6 11.8 5.0 52 4.7 E 9 19 5 10 1026.0 1024.6 0.0
21/03:00pm 14.5 11.7 5.1 53 4.6 ESE 9 19 5 10 1025.7 1024.4 0.0
21/02:30pm 14.8 11.5 4.5 50 5.0 ESE 11 17 6 9 1025.7 1024.4 0.0
21/02:00pm 15.0 12.2 5.0 51 4.9 ESE 9 24 5 13 1025.7 1024.4 0.0
21/01:30pm 15.8 12.9 4.6 47 5.5 E 9 19 5 10 1025.6 1024.2 0.0
21/01:00pm 16.2 13.0 4.9 47 5.6 E 11 20 6 11 1026.1 1024.7 0.0
21/12:30pm 16.6 13.2 3.8 42 6.2 E 11 24 6 13 1026.4 1025.0 0.0
21/12:00pm 16.6 12.9 4.6 45 5.9 E 13 24 7 13 1026.7 1025.3 0.0
21/11:30am 16.3 13.0 4.5 45 5.8 E 11 22 6 12 1027.1 1025.7 0.0
21/11:00am 15.2 11.1 4.2 48 5.3 ESE 15 28 8 15 1027.2 1025.8 0.0
21/10:30am 14.8 10.9 3.4 46 5.4 E 13 26 7 14 1027.1 1025.7 0.0
21/10:00am 14.1 9.8 3.5 49 5.0 ESE 15 28 8 15 1027.6 1026.2 0.0
21/09:30am 14.8 11.5 4.5 50 5.0 E 11 22 6 12 1027.8 1026.5 0.0
21/09:00am 13.7 10.5 5.1 56 4.2 E 11 20 6 11 1028.2 1026.9 0.0
21/08:30am 12.7 9.2 5.5 61 3.5 E 13 26 7 14 1028.0 1026.7 0.0
21/08:00am 10.9 7.5 6.0 72 2.4 E 13 22 7 12 1027.8 1026.5 0.0
21/07:30am 10.9 8.0 6.6 75 2.1 ESE 11 20 6 11 1027.3 1025.9 0.0
21/07:00am 9.3 6.4 6.6 83 1.3 ESE 11 19 6 10 1027.3 1025.9 0.0
21/06:30am 9.1 6.7 7.1 87 1.0 ESE 9 20 5 11 1026.8 1025.5 0.0
21/06:00am 8.8 6.8 7.0 88 0.9 E 7 17 4 9 1026.4 1025.0 0.0
21/05:30am 8.7 6.3 6.9 88 0.9 E 9 19 5 10 1026.1 1024.7 0.0
21/05:00am 8.4 6.0 7.0 91 0.7 ESE 9 22 5 12 1025.6 1024.2 0.0
21/04:30am 8.1 5.6 6.7 91 0.7 E 9 17 5 9 1025.3 1023.9 0.0
21/04:00am 7.8 5.8 6.3 90 0.7 E 6 13 3 7 1025.0 1023.6 0.0
21/03:30am 7.8 5.8 6.1 89 0.8 E 6 13 3 7 1025.0 1023.6 0.0
21/03:00am 7.5 5.4 5.8 89 0.8 E 6 13 3 7 1024.8 1023.4 0.0
21/02:30am 7.7 5.6 5.6 86 1.0 E 6 13 3 7 1025.1 1023.7 0.0
21/02:00am 7.9 5.5 5.3 84 1.2 ENE 7 15 4 8 1025.5 1024.1 0.0
21/01:30am 7.9 5.7 5.3 84 1.2 E 6 13 3 7 1025.5 1024.1 0.0
21/01:00am 7.9 5.7 5.3 84 1.2 ESE 6 13 3 7 1025.7 1024.4 0.0
21/12:30am 7.9 5.8 5.6 85 1.1 E 6 9 3 5 1026.1 1024.7 0.0
21/12:00am 8.0 5.8 5.4 84 1.2 E 6 9 3 5 1026.0 1024.6 0.0
 
Date/Time
EST
Temp
°C
App
Temp
°C
Dew
Point
Rel
Hum
%
Delta-T
°C
Wind Press
QNH
hPa
Press
MSL
hPa
Rain
since 9 am
mm
Dir
 
Spd
km/h
Gust
km/h
Spd
kts
Gust
kts
20/11:30pm 8.3 5.8 4.9 79 1.6 E 7 13 4 7 1026.1 1024.7 0.0
20/11:00pm 8.6 6.2 5.2 79 1.6 E 7 17 4 9 1026.3 1024.9 0.0
20/10:30pm 9.0 6.4 5.9 81 1.5 E 9 20 5 11 1026.2 1024.8 0.0
20/10:00pm 9.5 6.5 6.2 80 1.6 E 11 28 6 15 1026.1 1024.7 0.0
20/09:30pm 9.8 7.3 6.5 80 1.6 E 9 22 5 12 1025.9 1024.5 0.0
20/09:00pm 10.2 7.3 6.3 77 1.9 E 11 30 6 16 1025.6 1024.2 0.0
20/08:30pm 10.4 7.1 6.5 77 1.9 E 13 22 7 12 1025.2 1023.8 0.0
20/08:00pm 10.4 8.3 6.5 77 1.9 E 7 17 4 9 1024.7 1023.2 0.0
20/07:30pm 10.5 8.3 6.2 75 2.1 E 7 22 4 12 1024.3 1022.9 0.0
20/07:00pm 10.9 8.8 5.7 70 2.5 E 6 15 3 8 1023.9 1022.5 0.0
20/06:30pm 11.9 9.2 5.8 66 3.0 ESE 9 15 5 8 1023.5 1022.0 0.0
20/06:00pm 12.9 10.5 5.3 60 3.7 E 7 19 4 10 1022.7 1021.2 0.0
20/05:30pm 13.9 11.5 5.1 55 4.3 ESE 7 15 4 8 1022.0 1020.6 0.0
20/05:00pm 15.0 11.5 5.3 52 4.8 ESE 13 22 7 12 1021.6 1020.1 0.0
20/04:30pm 15.2 12.5 5.6 52 4.8 ESE 9 19 5 10 1021.0 1019.5 0.0
20/04:00pm 15.7 12.9 5.0 49 5.3 E 9 17 5 9 1020.7 1019.3 0.0
20/03:30pm 16.7 13.9 5.1 46 5.8 ESE 9 19 5 10 1020.0 1018.5 0.0
20/03:00pm 16.1 13.3 5.3 48 5.4 E 9 19 5 10 1020.2 1018.7 0.0
20/02:30pm 17.7 15.0 5.5 44 6.2 E 9 19 5 10 1020.1 1018.6 0.0
20/02:00pm 17.2 14.2 -1.5 28 8.2 SW 4 7 2 4 1020.2 1018.7 0.0
20/01:30pm 18.0 14.9 3.4 38 7.1 N 9 22 5 12 1020.5 1019.0 0.0
20/01:00pm 16.7 13.9 -0.6 31 7.7 ENE 4 7 2 4 1020.9 1019.4 0.0
20/12:30pm 16.9 14.1 2.9 39 6.7 ENE 7 15 4 8 1021.2 1019.7 0.0
20/12:00pm 17.0 15.3 3.9 41 6.4 SE 2 4 1 2 1021.5 1020.0 0.0
20/11:30am 15.2 12.7 3.7 46 5.5 S 6 9 3 5 1021.9 1020.5 0.0
20/11:00am 16.4 14.1 5.7 49 5.4 ENE 7 15 4 8 1022.5 1021.0 0.0
20/10:30am 16.1 13.7 4.2 45 5.8 SE 6 9 3 5 1022.8 1021.4 0.0
20/10:00am 15.2 13.0 5.1 51 5.0 E 6 9 3 5 1023.1 1021.7 0.0
20/09:30am 14.7 12.5 6.4 57 4.2 E 7 13 4 7 1023.5 1022.0 0.0
20/09:00am 13.8 11.7 6.7 62 3.6 E 7 15 4 8 1023.6 1022.1 0.0
20/08:30am 12.6 10.5 6.8 68 2.9 E 7 17 4 9 1023.5 1022.0 0.0
20/08:00am 11.8 9.7 6.6 70 2.6 ESE 7 13 4 7 1023.2 1021.8 0.0
20/07:30am 10.4 8.3 6.8 78 1.8 E 7 13 4 7 1023.1 1021.7 0.0
20/07:00am 8.9 6.9 6.9 87 1.0 E 7 15 4 8 1022.8 1021.4 0.0
20/06:30am 8.1 6.0 6.7 91 0.7 ENE 7 17 4 9 1022.4 1020.9 0.0
20/06:00am 5.8 4.0 3.5 85 1.0 NE 2 7 1 4 1021.8 1020.4 0.0
20/05:30am 6.1 4.5 2.6 78 1.5 CALM 0 0 0 0 1021.3 1019.8 0.0
20/05:00am 6.8 5.5 3.9 82 1.3 CALM 0 0 0 0 1020.7 1019.3 0.0
20/04:30am 8.3 6.9 3.7 73 2.1 CALM 0 4 0 2 1020.6 1019.1 0.0
20/04:00am 8.1 6.0 1.9 65 2.7 NE 2 4 1 2 1020.4 1018.9 0.0
20/03:30am 7.8 5.5 0.4 59 3.1 E 2 4 1 2 1020.3 1018.8 0.0
20/03:00am 7.3 5.3 -0.3 58 3.1 CALM 0 4 0 2 1020.3 1018.8 0.0
20/02:30am 7.6 5.2 -0.2 58 3.2 ENE 2 4 1 2 1020.3 1018.8 0.0
20/02:00am 7.0 4.1 -1.3 55 3.3 ESE 4 7 2 4 1020.6 1019.1 0.0
20/01:30am 6.6 3.8 -0.6 60 2.9 SSW 4 4 2 2 1020.4 1018.9 0.0
20/01:00am 7.6 4.7 -1.4 53 3.6 S 4 6 2 3 1020.5 1019.0 0.0
20/12:30am 8.2 5.3 -0.9 52 3.7 S 4 6 2 3 1020.7 1019.3 0.0
20/12:00am 9.3 7.0 -2.2 44 4.6 CALM 0 0 0 0 1021.0 1019.5 0.0
 
Date/Time
EST
Temp
°C
App
Temp
°C
Dew
Point
Rel
Hum
%
Delta-T
°C
Wind Press
QNH
hPa
Press
MSL
hPa
Rain
since 9 am
mm
Dir
 
Spd
km/h
Gust
km/h
Spd
kts
Gust
kts
19/11:30pm 10.0 6.5 -3.2 39 5.2 SW 6 9 3 5 1021.0 1019.5 0.0
19/11:00pm 10.0 6.4 -4.0 37 5.4 SW 6 9 3 5 1020.9 1019.4 0.0
19/10:30pm 7.9 5.4 -1.0 53 3.6 SSW 2 6 1 3 1021.2 1019.7 0.0
19/10:00pm 8.9 6.6 -2.2 45 4.4 CALM 0 0 0 0 1021.7 1020.2 0.0
19/09:30pm 9.3 6.2 -2.9 42 4.8 SSW 4 6 2 3 1021.7 1020.2 0.0
19/09:00pm 11.3 7.6 -4.9 32 6.2 SW 6 7 3 4 1021.9 1020.5 0.0
19/08:30pm 11.7 8.0 -4.9 31 6.4 WSW 6 9 3 5 1021.7 1020.2 0.0
19/08:00pm 12.7 8.8 -5.1 28 6.9 SW 7 11 4 6 1021.5 1020.0 0.0
19/07:30pm 13.8 9.7 -6.9 23 7.8 W 7 15 4 8 1021.1 1019.6 0.0
19/07:00pm 13.9 9.9 -7.6 22 8.0 W 6 9 3 5 1020.6 1019.1 0.0
19/06:30pm 14.0 10.0 -7.4 22 8.0 WNW 6 9 3 5 1020.1 1018.6 0.0
19/06:00pm 14.5 9.8 -8.8 19 8.5 W 9 15 5 8 1019.5 1018.0 0.0
19/05:30pm 15.3 11.3 -7.8 19 8.7 W 6 9 3 5 1019.1 1017.6 0.0
19/05:00pm 16.9 12.2 -9.7 15 9.8 W 9 20 5 11 1018.8 1017.3 0.0
19/04:30pm 18.3 13.5 -11.1 12 10.7 W 9 20 5 11 1018.5 1016.9 0.0
19/04:00pm 18.7 13.7 -13.3 10 11.2 WNW 9 20 5 11 1018.3 1016.8 0.0
19/03:30pm 19.1 13.3 -14.2 9 11.5 W 13 22 7 12 1018.1 1016.6 0.0
19/03:00pm 18.6 13.6 -12.9 10 11.1 NW 9 19 5 10 1018.1 1016.6 0.0
19/02:30pm 18.8 13.7 -14.6 9 11.4 NW 9 19 5 10 1018.5 1016.9 0.0
19/02:00pm 17.4 12.3 -16.2 9 10.9 WNW 9 20 5 11 1018.8 1017.3 0.0
19/01:30pm 18.5 13.0 -16.0 8 11.4 WNW 11 26 6 14 1019.2 1017.7 0.0
19/01:00pm 17.9 13.2 -9.8 14 10.3 WNW 9 17 5 9 1019.5 1018.0 0.0
19/12:30pm 18.6 13.5 -8.9 14 10.5 WNW 11 24 6 13 1020.2 1018.7 0.0
19/12:00pm 18.9 13.6 -11.9 11 11.1 NW 11 19 6 10 1020.5 1019.0 0.0
19/11:30am 18.3 13.4 -7.0 17 10.0 NW 11 26 6 14 1020.9 1019.4 0.0
19/11:00am 18.0 12.3 -12.2 12 10.7 W 13 20 7 11 1021.2 1019.7 0.0
19/10:30am 17.7 13.4 -11.1 13 10.4 NNW 6 13 3 7 1021.5 1020.0 0.0
19/10:00am 17.3 13.3 -8.1 17 9.7 ENE 6 9 3 5 1021.8 1020.4 0.0
19/09:30am 16.0 11.9 -6.2 21 8.7 NW 7 11 4 6 1022.0 1020.6 0.0
19/09:00am 14.7 11.6 -2.5 30 7.2 SW 4 6 2 3 1022.5 1021.0 0.0
19/08:30am 13.7 11.1 -1.4 35 6.4 NE 2 6 1 3 1022.6 1021.1 0.0
19/08:00am 11.1 9.9 4.8 65 3.0 CALM 0 2 0 1 1022.7 1021.2 0.0
19/07:30am 7.8 6.5 4.3 78 1.6 CALM 0 0 0 0 1022.5 1021.0 0.0
19/07:00am 4.4 2.9 3.0 91 0.6 CALM 0 0 0 0 1022.2 1020.7 0.0
19/06:30am 0.7 -1.3 -0.4 92 0.4 CALM 0 0 0 0 1021.8 1020.4 0.0
19/06:00am -0.7 - - - - CALM 0 0 0 0 1021.7 1020.2 0.0
19/05:30am -0.6 - - - - CALM 0 0 0 0 1021.4 1019.9 0.0
19/05:00am -0.5 - - - - CALM 0 0 0 0 1021.1 1019.6 0.0
19/04:30am -0.4 - - - - CALM 0 0 0 0 1021.1 1019.6 0.0
19/04:00am -0.2 - - - - CALM 0 0 0 0 1021.0 1019.5 0.0
19/03:30am -0.1 - - - - CALM 0 0 0 0 1020.7 1019.3 0.0
19/03:00am 0.0 - - - - CALM 0 0 0 0 1020.7 1019.3 0.0
19/02:30am 0.1 - - - - CALM 0 0 0 0 1020.6 1019.1 0.0
19/02:00am 0.5 - - - - CALM 0 0 0 0 1020.9 1019.4 0.0
19/01:30am 1.1 -1.4 -1.0 86 0.8 NE 2 4 1 2 1021.2 1019.7 0.0
19/01:00am 0.7 - - - - NE 2 4 1 2 1021.5 1020.0 0.0
19/12:30am 1.4 -1.2 -1.6 80 1.1 NE 2 4 1 2 1021.7 1020.2 0.0
19/12:00am 1.4 -1.1 -1.3 82 1.0 NE 2 2 1 1 1021.8 1020.4 0.0
 
Date/Time
EST
Temp
°C
App
Temp
°C
Dew
Point
Rel
Hum
%
Delta-T
°C
Wind Press
QNH
hPa
Press
MSL
hPa
Rain
since 9 am
mm
Dir
 
Spd
km/h
Gust
km/h
Spd
kts
Gust
kts
18/11:30pm 1.5 -1.0 -1.2 82 1.0 NE 2 6 1 3 1021.9 1020.5 0.0
18/11:00pm 2.2 -0.2 -0.4 83 1.0 ENE 2 4 1 2 1021.8 1020.4 0.0
18/10:30pm 2.7 0.2 -0.7 78 1.3 ENE 2 4 1 2 1021.9 1020.5 0.0
18/10:00pm 2.6 0.6 -0.2 82 1.1 CALM 0 0 0 0 1022.0 1020.6 0.0
18/09:30pm 3.4 1.0 -0.2 77 1.4 NE 2 4 1 2 1021.7 1020.2 0.0
18/09:00pm 4.0 1.8 -1.2 69 2.0 CALM 0 4 0 2 1021.7 1020.2 0.0
18/08:30pm 5.0 2.5 -1.1 65 2.4 NE 2 4 1 2 1021.4 1019.9 0.0
18/08:00pm 6.0 3.9 -0.8 61 2.7 CALM 0 0 0 0 1021.2 1019.7 0.0
18/07:30pm 7.4 5.2 -1.4 53 3.5 CALM 0 0 0 0 1020.9 1019.4 0.0
18/07:00pm 8.9 5.9 -5.5 35 5.3 SW 2 4 1 2 1020.4 1018.9 0.0
18/06:30pm 12.4 8.5 -6.6 26 7.1 W 6 7 3 4 1020.2 1018.7 0.0

Other Formats:

Comma delimited format used in spreadsheet applications
http://www.bom.gov.au/fwo/IDQ60801/IDQ60801.94553.axf

JavaScript Object Notation format (JSON) in row-major order
http://www.bom.gov.au/fwo/IDQ60801/IDQ60801.94553.json